Terminal Aerodrome Forecast
Issued by NWS Omaha/Valley, NE

Home | Current Version | Previous Version | Text Only | Print | Product List | Glossary On
Versions: 1 2 3 4 5 6 7 8 9 10 11 12 13 14 15 16 17 18 19 20 21 22 23 24 25 26 27 28
000
FTUS43 KOAX 300625 RRA
TAFLNK
TAF
KLNK 300625Z 3006/3106 35018G25KT P6SM OVC015
      TEMPO 3006/3009 SCT015 OVC025
     FM301200 35016G25KT P6SM BKN025
     FM301600 36014G20KT P6SM SCT040
     FM302200 01010KT P6SM SKC=

USA.gov is the U.S. government's official web portal to all federal, state and local government web resources and services.